Time;durP1;ratioP1;P1;durP2;ratioP2;P2;SDS_P1;SDS_P2;PMS_P1;PMS_P2;Temp;Humidity;BMP_temperature;BMP_pressure;BME280_temperature;BME280_humidity;BME280_pressure;Samples;Min_cycle;Max_cycle;Signal;HPM_P1;HPM_P2
2022/05/02 00:00:41;;;;;;;1999.90;999.90;;;11.50;99.90;;;;;;4877958;29;20033;-76
2022/05/02 00:03:07;;;;;;;1999.90;999.90;;;11.40;99.90;;;;;;4879276;29;20112;-76
2022/05/02 00:05:33;;;;;;;1999.90;999.90;;;11.40;99.90;;;;;;4878839;29;20056;-76
2022/05/02 00:07:58;;;;;;;1999.90;999.90;;;11.40;99.90;;;;;;4879237;29;20557;-76
2022/05/02 00:10:24;;;;;;;1999.90;999.90;;;11.40;99.90;;;;;;4879291;29;20484;-76
2022/05/02 00:12:50;;;;;;;1999.90;999.90;;;11.30;99.90;;;;;;4879201;29;20029;-76
2022/05/02 00:15:15;;;;;;;1999.90;999.90;;;11.40;99.90;;;;;;4878277;29;20085;-76
2022/05/02 00:17:56;;;;;;;1999.90;999.90;;;11.30;99.90;;;;;;4879209;29;20116;-76
2022/05/02 00:20:24;;;;;;;1999.90;999.90;;;11.30;99.90;;;;;;4878477;29;20400;-76
2022/05/02 00:22:49;;;;;;;1999.90;999.90;;;11.30;99.90;;;;;;4862384;29;20037;-76
2022/05/02 00:25:15;;;;;;;1999.90;999.90;;;11.30;99.90;;;;;;4879028;29;20027;-76
2022/05/02 00:27:42;;;;;;;1999.90;999.90;;;11.20;99.90;;;;;;4879344;29;20112;-76
2022/05/02 00:30:09;;;;;;;1999.90;999.90;;;11.20;99.90;;;;;;4862180;29;20049;-76
2022/05/02 00:32:35;;;;;;;1999.90;999.90;;;11.20;99.90;;;;;;4879567;29;20029;-76
2022/05/02 00:35:02;;;;;;;1999.90;999.90;;;11.20;99.90;;;;;;4878155;29;20081;-76
2022/05/02 00:37:29;;;;;;;1999.90;999.90;;;11.20;99.90;;;;;;4885381;29;20480;-76
2022/05/02 00:39:54;;;;;;;1999.90;999.90;;;11.20;99.90;;;;;;4916832;29;20020;-76
2022/05/02 00:42:20;;;;;;;1999.90;999.90;;;11.20;99.90;;;;;;4916330;29;20044;-76
2022/05/02 00:44:46;;;;;;;1999.90;999.90;;;11.20;99.90;;;;;;4916273;29;20032;-75
2022/05/02 00:47:15;;;;;;;1999.90;999.90;;;11.20;99.90;;;;;;4916505;29;20040;-76
2022/05/02 00:49:41;;;;;;;1999.90;999.90;;;11.20;99.90;;;;;;4916089;29;20024;-76
2022/05/02 00:52:07;;;;;;;1999.90;999.90;;;11.20;99.90;;;;;;4916619;29;20055;-76
2022/05/02 00:54:35;;;;;;;1999.90;999.90;;;11.20;99.90;;;;;;4904732;29;20503;-76
2022/05/02 00:57:01;;;;;;;1999.90;999.90;;;11.20;99.90;;;;;;4878721;29;20060;-77
2022/05/02 00:59:28;;;;;;;1999.90;999.90;;;11.20;99.90;;;;;;4881289;29;20029;-76
2022/05/02 01:01:54;;;;;;;1999.90;999.90;;;11.20;99.90;;;;;;4877586;29;20132;-77
2022/05/02 01:04:19;;;;;;;1999.90;999.90;;;11.20;99.90;;;;;;4878455;29;20112;-77
2022/05/02 01:09:32;;;;;;;1999.90;999.90;;;11.10;99.90;;;;;;4882027;29;20116;-76
2022/05/02 01:11:57;;;;;;;1999.90;999.90;;;11.00;99.90;;;;;;4882094;29;20032;-76
2022/05/02 01:14:23;;;;;;;1999.90;999.90;;;11.00;99.90;;;;;;4881225;29;20025;-77
2022/05/02 01:16:49;;;;;;;1999.90;999.90;;;10.90;99.90;;;;;;4881112;29;20064;-77
2022/05/02 01:19:15;;;;;;;1999.90;999.90;;;11.00;99.90;;;;;;4881337;29;20029;-76
2022/05/02 01:21:44;;;;;;;1999.90;999.90;;;10.90;99.90;;;;;;4882144;29;20107;-76
2022/05/02 01:24:10;;;;;;;1999.90;999.90;;;11.00;99.90;;;;;;4882316;29;20029;-76
2022/05/02 01:26:37;;;;;;;1999.90;999.90;;;11.00;99.90;;;;;;4864983;29;20090;-76
2022/05/02 01:29:03;;;;;;;1999.90;999.90;;;11.00;99.90;;;;;;4881574;29;20160;-76
2022/05/02 01:31:29;;;;;;;1999.90;999.90;;;11.00;99.90;;;;;;4894144;29;20029;-77
2022/05/02 01:33:55;;;;;;;1999.90;999.90;;;11.00;99.90;;;;;;4881986;29;20397;-76
2022/05/02 01:36:22;;;;;;;1999.90;999.90;;;11.00;99.90;;;;;;4881736;29;20041;-76
2022/05/02 01:38:48;;;;;;;1999.90;999.90;;;11.00;99.90;;;;;;4908257;29;20036;-76
2022/05/02 01:41:14;;;;;;;1999.90;999.90;;;10.90;99.90;;;;;;4919075;29;20059;-76
2022/05/02 01:43:40;;;;;;;1999.90;999.90;;;10.90;99.90;;;;;;4918764;29;20032;-76
2022/05/02 01:46:07;;;;;;;1999.90;999.90;;;10.90;99.90;;;;;;4919087;29;20020;-76
2022/05/02 01:48:33;;;;;;;1999.90;999.90;;;10.90;99.90;;;;;;4918669;29;20032;-77
2022/05/02 01:50:58;;;;;;;1999.90;999.90;;;10.90;99.90;;;;;;4918654;29;20111;-76
2022/05/02 01:53:25;;;;;;;1999.90;999.90;;;10.90;99.90;;;;;;4919052;29;20032;-76
2022/05/02 01:55:51;;;;;;;1999.90;999.90;;;10.90;99.90;;;;;;4887021;29;20100;-76
2022/05/02 01:58:17;;;;;;;1999.90;999.90;;;10.90;99.90;;;;;;4881202;29;20116;-76
2022/05/02 02:00:43;;;;;;;1999.90;999.90;;;10.90;99.90;;;;;;4880986;29;20030;-77
2022/05/02 02:03:09;;;;;;;1999.90;999.90;;;10.80;99.90;;;;;;4892683;29;20025;-77
2022/05/02 02:05:50;;;;;;;1999.90;999.90;;;10.80;99.90;;;;;;4881071;29;20107;-77
2022/05/02 02:08:16;;;;;;;1999.90;999.90;;;10.80;99.90;;;;;;4881059;29;20029;-77
2022/05/02 02:10:42;;;;;;;1999.90;999.90;;;10.80;99.90;;;;;;4881067;29;20032;-77
2022/05/02 02:13:08;;;;;;;1999.90;999.90;;;10.80;99.90;;;;;;4898107;29;20028;-77
2022/05/02 02:15:33;;;;;;;1999.90;999.90;;;10.80;99.90;;;;;;4899615;29;20161;-77
2022/05/02 02:17:59;;;;;;;1999.90;999.90;;;10.80;99.90;;;;;;4881589;29;20033;-76
2022/05/02 02:20:25;;;;;;;1999.90;999.90;;;10.80;99.90;;;;;;4898628;29;20032;-76
2022/05/02 02:22:50;;;;;;;1999.90;999.90;;;10.80;99.90;;;;;;4899839;29;20032;-76
2022/05/02 02:25:16;;;;;;;1999.90;999.90;;;10.80;99.90;;;;;;4899510;29;20029;-76
2022/05/02 02:27:41;;;;;;;1999.90;999.90;;;10.80;99.90;;;;;;4899652;29;20036;-76
2022/05/02 02:30:08;;;;;;;1999.90;999.90;;;10.70;99.90;;;;;;4899272;29;20048;-76
2022/05/02 02:32:33;;;;;;;1999.90;999.90;;;10.70;99.90;;;;;;4899306;29;20108;-76
2022/05/02 02:34:59;;;;;;;1999.90;999.90;;;10.70;99.90;;;;;;4905983;29;20063;-77
2022/05/02 02:37:25;;;;;;;1999.90;999.90;;;10.70;99.90;;;;;;4890489;29;20483;-76
2022/05/02 02:39:50;;;;;;;1999.90;999.90;;;10.60;99.90;;;;;;4918404;29;20024;-77
2022/05/02 02:42:16;;;;;;;1999.90;999.90;;;10.60;99.90;;;;;;4918024;29;20044;-76
2022/05/02 02:44:42;;;;;;;1999.90;999.90;;;10.60;99.90;;;;;;4917810;29;20527;-76
2022/05/02 02:47:07;;;;;;;1999.90;999.90;;;10.50;99.90;;;;;;4917756;29;20036;-77
2022/05/02 02:49:33;;;;;;;1999.90;999.90;;;10.60;99.90;;;;;;4884417;29;20025;-79
2022/05/02 02:51:59;;;;;;;1999.90;999.90;;;10.60;99.90;;;;;;4899339;29;20035;-79
2022/05/02 02:54:24;;;;;;;1999.90;999.90;;;10.50;99.90;;;;;;4894012;29;20444;-79
2022/05/02 02:56:50;;;;;;;1999.90;999.90;;;10.50;99.90;;;;;;4880519;29;20033;-78
2022/05/02 02:59:16;;;;;;;1999.90;999.90;;;10.50;99.90;;;;;;4879804;29;20040;-79
2022/05/02 03:01:41;;;;;;;1999.90;999.90;;;10.50;99.90;;;;;;4880282;29;20064;-79
2022/05/02 03:06:53;;;;;;;1999.90;999.90;;;10.50;99.90;;;;;;4880250;29;20043;-79
2022/05/02 03:09:18;;;;;;;1999.90;999.90;;;10.50;99.90;;;;;;4890350;29;20021;-79
2022/05/02 03:11:45;;;;;;;1999.90;999.90;;;10.40;99.90;;;;;;4881499;29;20053;-79
2022/05/02 03:14:10;;;;;;;1999.90;999.90;;;10.40;99.90;;;;;;4896186;29;20052;-79
2022/05/02 03:16:36;;;;;;;1999.90;999.90;;;10.30;99.90;;;;;;4897943;29;20060;-79
2022/05/02 03:19:01;;;;;;;1999.90;999.90;;;10.30;99.90;;;;;;4898310;29;20111;-79
2022/05/02 03:21:27;;;;;;;1999.90;999.90;;;10.40;99.90;;;;;;4898516;29;20480;-79
2022/05/02 03:23:53;;;;;;;1999.90;999.90;;;10.40;99.90;;;;;;4898699;29;20404;-79
2022/05/02 03:26:19;;;;;;;1999.90;999.90;;;10.40;99.90;;;;;;4898489;29;20020;-79
2022/05/02 03:28:45;;;;;;;1999.90;999.90;;;10.30;99.90;;;;;;4897122;29;20433;-79
2022/05/02 03:31:10;;;;;;;1999.90;999.90;;;10.30;99.90;;;;;;4898032;29;20404;-79
2022/05/02 03:33:36;;;;;;;1999.90;999.90;;;10.30;99.90;;;;;;4898902;29;20044;-79
2022/05/02 03:36:02;;;;;;;1999.90;999.90;;;10.30;99.90;;;;;;4898399;29;20528;-78
2022/05/02 03:38:27;;;;;;;1999.90;999.90;;;10.20;99.90;;;;;;4897292;29;20407;-79
2022/05/02 03:40:53;;;;;;;1999.90;999.90;;;10.20;99.90;;;;;;4900009;29;20075;-79
2022/05/02 03:43:19;;;;;;;1999.90;999.90;;;10.20;99.90;;;;;;4916844;29;20031;-79
2022/05/02 03:45:44;;;;;;;1999.90;999.90;;;10.20;99.90;;;;;;4916905;29;20028;-79
2022/05/02 03:48:10;;;;;;;1999.90;999.90;;;10.10;99.90;;;;;;4917154;29;20092;-78
2022/05/02 03:50:36;;;;;;;1999.90;999.90;;;10.10;99.90;;;;;;4916981;29;20028;-79
2022/05/02 03:53:01;;;;;;;1999.90;999.90;;;10.10;99.90;;;;;;4916996;29;20028;-79
2022/05/02 03:55:27;;;;;;;1999.90;999.90;;;10.00;99.90;;;;;;4891419;29;20084;-79
2022/05/02 03:57:52;;;;;;;1999.90;999.90;;;10.00;99.90;;;;;;4877989;29;20033;-79
2022/05/02 04:00:19;;;;;;;1999.90;999.90;;;10.00;99.90;;;;;;4879325;29;20049;-78
2022/05/02 04:02:44;;;;;;;1999.90;999.90;;;10.00;99.90;;;;;;4877946;29;20036;-78
2022/05/02 04:05:10;;;;;;;1999.90;999.90;;;10.00;99.90;;;;;;4878491;29;20037;-79
2022/05/02 04:07:37;;;;;;;1999.90;999.90;;;10.00;99.90;;;;;;4879564;29;20032;-79
2022/05/02 04:10:04;;;;;;;1999.90;999.90;;;10.00;99.90;;;;;;4879191;29;20033;-79
2022/05/02 04:12:39;;;;;;;1999.90;999.90;;;10.00;99.90;;;;;;4877560;29;20100;-79
2022/05/02 04:15:09;;;;;;;1999.90;999.90;;;10.00;99.90;;;;;;4878250;29;20409;-79
2022/05/02 04:17:35;;;;;;;1999.90;999.90;;;10.00;99.90;;;;;;4878496;29;20412;-79
2022/05/02 04:20:01;;;;;;;1999.90;999.90;;;9.90;99.90;;;;;;4878644;29;20029;-79
2022/05/02 04:22:27;;;;;;;1999.90;999.90;;;9.90;99.90;;;;;;4879318;29;20029;-79
2022/05/02 04:24:52;;;;;;;1999.90;999.90;;;9.90;99.90;;;;;;4879096;29;20096;-79
2022/05/02 04:27:18;;;;;;;1999.90;999.90;;;10.00;99.90;;;;;;4862215;29;20165;-78
2022/05/02 04:29:44;;;;;;;1999.90;999.90;;;10.00;99.90;;;;;;4862024;29;20033;-78
2022/05/02 04:32:09;;;;;;;1999.90;999.90;;;10.00;99.90;;;;;;4879103;29;20033;-79
2022/05/02 04:34:35;;;;;;;1999.90;999.90;;;10.00;99.90;;;;;;4862016;29;20036;-79
2022/05/02 04:37:00;;;;;;;1999.90;999.90;;;10.00;99.90;;;;;;4879233;29;20037;-79
2022/05/02 04:39:26;;;;;;;1999.90;999.90;;;9.90;99.90;;;;;;4915023;29;20040;-79
2022/05/02 04:41:52;;;;;;;1999.90;999.90;;;9.90;99.90;;;;;;4919771;29;20075;-79
2022/05/02 04:44:17;;;;;;;1999.90;999.90;;;9.90;99.90;;;;;;4920181;29;20043;-79
2022/05/02 04:46:43;;;;;;;1999.90;999.90;;;9.90;99.90;;;;;;4923645;29;20500;-79
2022/05/02 04:49:08;;;;;;;1999.90;999.90;;;9.80;99.90;;;;;;4904247;29;20029;-79
2022/05/02 04:51:34;;;;;;;1999.90;999.90;;;9.80;99.90;;;;;;4900914;29;20025;-79
2022/05/02 04:54:00;;;;;;;1999.90;999.90;;;9.80;99.90;;;;;;4910048;29;20032;-79
2022/05/02 04:56:25;;;;;;;1999.90;999.90;;;9.70;99.90;;;;;;4882251;29;20080;-79
2022/05/02 04:58:51;;;;;;;1999.90;999.90;;;9.70;99.90;;;;;;4882989;29;20037;-79
2022/05/02 05:01:17;;;;;;;1999.90;999.90;;;9.70;99.90;;;;;;4901948;29;20028;-79
2022/05/02 05:03:42;;;;;;;1999.90;999.90;;;9.70;99.90;;;;;;4900455;29;20031;-79
2022/05/02 05:06:08;;;;;;;1999.90;999.90;;;9.70;99.90;;;;;;4899923;29;20168;-79
2022/05/02 05:08:34;;;;;;;1999.90;999.90;;;9.70;99.90;;;;;;4899460;29;20080;-79
2022/05/02 05:11:06;;;;;;;1999.90;999.90;;;9.80;99.90;;;;;;4903885;29;20079;-79
2022/05/02 05:17:50;;;;;;;1999.90;999.90;;;9.90;99.90;;;;;;4907312;29;20105;-79
2022/05/02 05:20:43;;;;;;;1999.90;999.90;;;10.00;99.90;;;;;;4786217;30;20090;-79
2022/05/02 05:23:33;;;;;;;1999.90;999.90;;;10.10;99.90;;;;;;4896362;29;20040;-79
2022/05/02 05:26:08;;;;;;;1999.90;999.90;;;10.10;99.90;;;;;;4900030;29;20028;-79
2022/05/02 05:28:58;;;;;;;1999.90;999.90;;;10.10;99.90;;;;;;4900264;29;20111;-79
2022/05/02 05:31:33;;;;;;;1999.90;999.90;;;10.20;99.90;;;;;;4880962;29;20081;-79
2022/05/02 05:34:09;;;;;;;1999.90;999.90;;;10.30;99.90;;;;;;4893907;29;20028;-79
2022/05/02 05:36:42;;;;;;;1999.90;999.90;;;10.40;99.90;;;;;;4900061;29;20040;-79
2022/05/02 05:39:18;;;;;;;1999.90;999.90;;;10.50;99.90;;;;;;4890855;29;20064;-79
2022/05/02 05:41:57;;;;;;;1999.90;999.90;;;10.50;99.90;;;;;;4901316;29;20050;-79
2022/05/02 05:44:35;;;;;;;1999.90;999.90;;;10.60;99.90;;;;;;4883243;29;20104;-78
2022/05/02 05:47:20;;;;;;;1999.90;999.90;;;10.70;99.90;;;;;;4882876;29;20143;-78
2022/05/02 05:50:22;;;;;;;1999.90;999.90;;;10.80;99.90;;;;;;4880875;29;20027;-79
2022/05/02 05:53:32;;;;;;;1999.90;999.90;;;10.90;99.90;;;;;;4870510;29;20031;-79
2022/05/02 05:56:13;;;;;;;1999.90;999.90;;;11.00;99.90;;;;;;4885131;29;20084;-79
2022/05/02 05:59:04;;;;;;;1999.90;999.90;;;11.10;99.90;;;;;;4896757;29;20025;-79
2022/05/02 06:01:46;;;;;;;1999.90;999.90;;;11.20;99.90;;;;;;4906451;29;20032;-79
2022/05/02 06:04:13;;;;;;;1999.90;999.90;;;11.30;99.90;;;;;;4900439;29;20030;-79
2022/05/02 06:06:40;;;;;;;1999.90;999.90;;;11.50;99.90;;;;;;4896391;29;20033;-79
2022/05/02 06:09:06;;;;;;;1999.90;999.90;;;11.50;99.90;;;;;;4880058;29;20021;-79
2022/05/02 06:11:36;;;;;;;1999.90;999.90;;;11.60;99.90;;;;;;4862590;29;20036;-79
2022/05/02 06:14:02;;;;;;;1999.90;999.90;;;11.60;99.90;;;;;;4897598;29;20025;-79
2022/05/02 06:19:27;;;;;;;1999.90;999.90;;;11.70;99.90;;;;;;4893202;29;20450;-78
2022/05/02 06:21:54;;;;;;;1999.90;999.90;;;11.80;99.90;;;;;;4911343;29;20352;-80
2022/05/02 06:24:23;;;;;;;1999.90;999.90;;;11.90;99.90;;;;;;4885331;29;20035;-81
2022/05/02 06:26:51;;;;;;;1999.90;999.90;;;12.00;99.90;;;;;;4899351;29;20143;-80
2022/05/02 06:29:20;;;;;;;1999.90;999.90;;;12.10;99.90;;;;;;4869384;29;20544;-79
2022/05/02 06:31:49;;;;;;;1999.90;999.90;;;12.20;99.90;;;;;;4882294;29;20040;-80
2022/05/02 06:34:18;;;;;;;1999.90;999.90;;;12.30;99.90;;;;;;4879162;29;20385;-80
2022/05/02 06:36:53;;;;;;;1999.90;999.90;;;12.40;99.90;;;;;;4895437;29;20028;-79
2022/05/02 06:39:43;;;;;;;1999.90;999.90;;;12.60;99.90;;;;;;4882151;29;20064;-79
2022/05/02 06:42:29;;;;;;;1999.90;999.90;;;12.70;99.90;;;;;;4890272;29;20067;-80
2022/05/02 06:45:07;;;;;;;1999.90;999.90;;;12.90;99.90;;;;;;4902757;29;20103;-80
2022/05/02 06:47:47;;;;;;;1999.90;999.90;;;13.00;99.90;;;;;;4890995;29;20093;-80
2022/05/02 06:50:18;;;;;;;1999.90;999.90;;;13.10;99.90;;;;;;4894434;29;20477;-79
2022/05/02 06:53:07;;;;;;;1999.90;999.90;;;13.20;99.90;;;;;;4900376;29;20119;-79
2022/05/02 06:55:58;;;;;;;1999.90;999.90;;;13.40;99.90;;;;;;4897785;29;20071;-79
2022/05/02 06:58:33;;;;;;;1999.90;999.90;;;13.60;99.90;;;;;;4909553;29;20747;-79
2022/05/02 07:01:21;;;;;;;1999.90;999.90;;;13.70;99.90;;;;;;4897764;29;20036;-80
2022/05/02 07:04:08;;;;;;;1999.90;999.90;;;14.00;99.90;;;;;;4888856;29;20092;-79
2022/05/02 07:06:48;;;;;;;1999.90;999.90;;;14.00;99.90;;;;;;4895929;29;20120;-79
2022/05/02 07:09:27;;;;;;;1999.90;999.90;;;14.10;99.90;;;;;;4896843;29;20033;-80
2022/05/02 07:12:25;;;;;;;1999.90;999.90;;;14.20;99.90;;;;;;4899278;29;20423;-79
2022/05/02 07:15:12;;;;;;;1999.90;999.90;;;14.20;99.90;;;;;;4891321;29;20017;-80
2022/05/02 07:17:51;;;;;;;1999.90;999.90;;;14.30;99.90;;;;;;4891590;29;20028;-79
2022/05/02 07:20:22;;;;;;;1999.90;999.90;;;14.30;99.90;;;;;;4891677;29;20079;-79
2022/05/02 07:23:06;;;;;;;1999.90;999.90;;;14.30;99.90;;;;;;4896868;29;20064;-79
2022/05/02 07:25:38;;;;;;;1999.90;999.90;;;14.40;99.90;;;;;;4893701;29;20515;-79
2022/05/02 07:28:07;;;;;;;1999.90;999.90;;;14.50;99.90;;;;;;4882330;29;20029;-78
2022/05/02 07:30:34;;;;;;;1999.90;999.90;;;14.50;99.90;;;;;;4894359;29;20033;-79
2022/05/02 07:33:03;;;;;;;1999.90;999.90;;;14.60;99.90;;;;;;4890869;29;20033;-79
2022/05/02 07:35:30;;;;;;;1999.90;999.90;;;14.80;99.90;;;;;;4893305;29;20112;-79
2022/05/02 07:37:58;;;;;;;1999.90;999.90;;;14.80;99.90;;;;;;4903920;29;20039;-79
2022/05/02 07:40:25;;;;;;;1999.90;999.90;;;15.00;99.90;;;;;;4895580;29;20051;-79
2022/05/02 07:42:54;;;;;;;1999.90;999.90;;;15.20;99.90;;;;;;4889162;29;20081;-79
2022/05/02 07:45:26;;;;;;;1999.90;999.90;;;15.40;99.90;;;;;;4890130;29;20112;-80
2022/05/02 07:47:54;;;;;;;1999.90;999.90;;;15.50;99.90;;;;;;4872492;29;20032;-80
2022/05/02 07:50:21;;;;;;;1999.90;999.90;;;16.10;99.90;;;;;;4881134;29;20514;-78
2022/05/02 07:52:49;;;;;;;1999.90;999.90;;;18.50;97.50;;;;;;4884287;29;20352;-78
2022/05/02 07:55:20;;;;;;;1999.90;999.90;;;20.60;93.40;;;;;;4896189;29;20036;-79
2022/05/02 07:57:47;;;;;;;1999.90;999.90;;;22.20;91.80;;;;;;4899938;29;20024;-76
2022/05/02 08:00:14;;;;;;;1999.90;999.90;;;22.80;90.60;;;;;;4886018;29;20147;-75
2022/05/02 08:02:41;;;;;;;1999.90;999.90;;;23.80;89.50;;;;;;4893933;29;20036;-75
2022/05/02 08:05:07;;;;;;;1999.90;999.90;;;24.10;87.70;;;;;;4883104;29;20032;-76
2022/05/02 08:07:44;;;;;;;1999.90;999.90;;;24.80;86.60;;;;;;4892963;29;20044;-75
2022/05/02 08:10:22;;;;;;;1999.90;999.90;;;25.30;84.40;;;;;;4893757;29;20043;-76
2022/05/02 08:13:20;;;;;;;1999.90;999.90;;;25.10;84.50;;;;;;4882693;29;20017;-76
2022/05/02 08:16:03;;;;;;;1999.90;999.90;;;25.70;83.50;;;;;;4882957;29;20029;-76
2022/05/02 08:18:55;;;;;;;1999.90;999.90;;;25.90;82.60;;;;;;4901855;29;20119;-76
2022/05/02 08:21:31;;;;;;;1999.90;999.90;;;25.90;82.10;;;;;;4888779;29;20032;-76
2022/05/02 08:27:17;;;;;;;1999.90;999.90;;;25.60;81.10;;;;;;4887904;29;20048;-76
2022/05/02 08:29:58;;;;;;;1999.90;999.90;;;25.00;82.30;;;;;;4880647;29;20039;-75
2022/05/02 08:32:39;;;;;;;1999.90;999.90;;;24.40;84.20;;;;;;4883677;29;20154;-76
2022/05/02 08:35:15;;;;;;;1999.90;999.90;;;24.30;83.50;;;;;;4898284;29;20029;-74
2022/05/02 08:37:57;;;;;;;1999.90;999.90;;;24.20;84.80;;;;;;4902331;29;20036;-76
2022/05/02 08:40:25;;;;;;;1999.90;999.90;;;24.20;85.00;;;;;;4917248;29;20076;-75
2022/05/02 08:43:28;;;;;;;1999.90;999.90;;;24.10;83.30;;;;;;4888935;29;20047;-75
2022/05/02 08:46:23;;;;;;;1999.90;999.90;;;23.70;84.60;;;;;;4881333;29;20029;-74
2022/05/02 08:49:35;;;;;;;1999.90;999.90;;;23.60;84.10;;;;;;4900257;29;20045;-74
2022/05/02 08:52:38;;;;;;;1999.90;999.90;;;23.80;84.90;;;;;;4902193;29;20054;-76
2022/05/02 08:55:28;;;;;;;1999.90;999.90;;;25.50;82.10;;;;;;4880560;29;20028;-75
2022/05/02 08:58:37;;;;;;;1999.90;999.90;;;25.80;80.40;;;;;;4903874;29;20031;-75
2022/05/02 09:01:40;;;;;;;1999.90;999.90;;;27.00;79.60;;;;;;4887858;29;20120;-76
2022/05/02 09:04:24;;;;;;;;;;;27.40;78.10;;;;;;4894577;29;20503;-76
2022/05/02 09:07:08;;;;;;;1999.90;999.90;;;27.40;77.30;;;;;;4891289;29;20006;-76
2022/05/02 09:09:51;;;;;;;1999.90;999.90;;;27.90;77.90;;;;;;4895894;29;20024;-75
2022/05/02 09:12:50;;;;;;;1999.90;999.90;;;27.90;76.80;;;;;;4893825;29;20032;-76
2022/05/02 09:15:44;;;;;;;1999.90;999.90;;;27.70;76.90;;;;;;4897644;29;20028;-76
2022/05/02 09:18:44;;;;;;;1999.90;999.90;;;27.90;77.00;;;;;;4899750;29;20143;-76
2022/05/02 09:21:28;;;;;;;1999.90;999.90;;;27.80;76.90;;;;;;4895480;29;20032;-76
2022/05/02 09:24:21;;;;;;;1999.90;999.90;;;27.90;76.80;;;;;;4878015;29;20492;-75
2022/05/02 09:27:28;;;;;;;1999.90;999.90;;;28.40;76.10;;;;;;4897896;29;20032;-76
2022/05/02 09:30:14;;;;;;;1999.90;999.90;;;28.40;76.50;;;;;;4896918;29;20080;-76
2022/05/02 09:33:16;;;;;;;1999.90;999.90;;;28.40;75.00;;;;;;4888867;29;20029;-76
2022/05/02 09:36:03;;;;;;;1999.90;999.90;;;28.30;74.90;;;;;;4889587;29;20487;-76
2022/05/02 09:38:48;;;;;;;1999.90;999.90;;;28.10;74.80;;;;;;4892993;29;20077;-76
2022/05/02 09:41:48;;;;;;;1999.90;999.90;;;27.20;74.90;;;;;;4895852;29;20053;-76
2022/05/02 09:51:02;;;;;;;1999.90;999.90;;;27.90;74.90;;;;;;4895298;29;20105;-76
2022/05/02 09:54:10;;;;;;;1999.90;999.90;;;27.80;75.70;;;;;;4891084;29;20055;-75
2022/05/02 09:56:46;;;;;;;1999.90;999.90;;;27.40;75.20;;;;;;4858054;29;20044;-77
2022/05/02 09:59:23;;;;;;;1999.90;999.90;;;27.50;75.30;;;;;;4889169;29;20039;-75
2022/05/02 10:02:05;;;;;;;1999.90;999.90;;;27.70;75.00;;;;;;4896510;29;20035;-75
2022/05/02 10:04:53;;;;;;;1999.90;999.90;;;28.50;74.70;;;;;;4895719;29;20112;-75
2022/05/02 10:07:23;;;;;;;1999.90;999.90;;;28.60;74.40;;;;;;4892985;29;20460;-77
2022/05/02 10:09:49;;;;;;;1999.90;999.90;;;28.70;74.00;;;;;;4895557;29;20036;-77
2022/05/02 10:12:43;;;;;;;1999.90;999.90;;;29.60;73.50;;;;;;4892915;29;20036;-76
2022/05/02 10:15:15;;;;;;;1999.90;999.90;;;29.20;72.10;;;;;;4889075;29;20552;-77
2022/05/02 10:18:20;;;;;;;1999.90;999.90;;;29.20;73.60;;;;;;4899037;29;20070;-75
2022/05/02 10:21:18;;;;;;;1999.90;999.90;;;28.40;72.60;;;;;;4896010;29;20115;-77
2022/05/02 10:24:17;;;;;;;1999.90;999.90;;;27.50;74.20;;;;;;4896971;29;20506;-77
2022/05/02 10:26:50;;;;;;;1999.90;999.90;;;27.30;74.80;;;;;;4904551;29;20043;-75
2022/05/02 10:29:35;;;;;;;1999.90;999.90;;;27.40;74.40;;;;;;4878455;29;20200;-75
2022/05/02 10:32:37;;;;;;;1999.90;999.90;;;27.10;73.80;;;;;;4899733;29;20051;-74
2022/05/02 10:35:03;;;;;;;1999.90;999.90;;;26.60;75.90;;;;;;4866489;29;20449;-77
2022/05/02 10:37:35;;;;;;;1999.90;999.90;;;25.90;74.70;;;;;;4896546;29;20092;-74
2022/05/02 10:40:10;;;;;;;1999.90;999.90;;;25.30;77.00;;;;;;4878728;29;20430;-74
2022/05/02 10:42:45;;;;;;;1999.90;999.90;;;25.60;77.10;;;;;;4896681;29;20121;-76
2022/05/02 10:45:11;;;;;;;1999.90;999.90;;;26.10;76.60;;;;;;4893574;29;20044;-74
2022/05/02 10:47:59;;;;;;;1999.90;999.90;;;25.90;75.00;;;;;;4886343;29;20041;-74
2022/05/02 10:50:34;;;;;;;1999.90;999.90;;;25.70;74.40;;;;;;4892732;29;20107;-74
2022/05/02 10:53:12;;;;;;;1999.90;999.90;;;25.90;74.40;;;;;;4878120;29;20361;-74
2022/05/02 10:55:43;;;;;;;1999.90;999.90;;;26.50;75.20;;;;;;4885424;29;20485;-76
2022/05/02 10:58:12;;;;;;;1999.90;999.90;;;26.40;73.60;;;;;;4890893;29;20803;-74
2022/05/02 11:01:03;;;;;;;1999.90;999.90;;;26.90;74.70;;;;;;4891022;29;20031;-74
2022/05/02 11:03:53;;;;;;;1999.90;999.90;;;27.00;72.60;;;;;;4868351;29;20040;-75
2022/05/02 11:06:30;;;;;;;1999.90;999.90;;;26.80;72.80;;;;;;4884812;29;20560;-74
2022/05/02 11:09:01;;;;;;;1999.90;999.90;;;26.90;74.00;;;;;;4886522;29;20530;-74
2022/05/02 11:11:49;;;;;;;1999.90;999.90;;;25.80;71.80;;;;;;4885002;29;20059;-74
2022/05/02 11:14:46;;;;;;;1999.90;999.90;;;25.60;73.80;;;;;;4875688;29;20116;-75
2022/05/02 11:17:38;;;;;;;1999.90;999.90;;;24.30;74.50;;;;;;4875147;29;20045;-74
2022/05/02 11:23:13;;;;;;;1999.90;999.90;;;25.90;73.50;;;;;;4894692;29;20105;-74
2022/05/02 11:26:13;;;;;;;1999.90;999.90;;;26.60;71.80;;;;;;4894870;29;20036;-74
2022/05/02 11:29:16;;;;;;;1999.90;999.90;;;27.40;71.90;;;;;;4890515;29;20056;-75
2022/05/02 11:31:57;;;;;;;1999.90;999.90;;;26.80;71.70;;;;;;4818353;29;20117;-74
2022/05/02 11:35:00;;;;;;;1999.90;999.90;;;27.50;71.40;;;;;;4820143;29;20056;-74
2022/05/02 11:37:52;;;;;;;1999.90;999.90;;;27.40;71.50;;;;;;4821313;29;20405;-75
2022/05/02 11:40:27;;;;;;;1999.90;999.90;;;26.60;71.00;;;;;;4818092;29;20046;-76
2022/05/02 11:42:53;;;;;;;1999.90;999.90;;;26.20;72.70;;;;;;4817814;29;20030;-76
2022/05/02 11:45:28;;;;;;;1999.90;999.90;;;25.40;71.30;;;;;;4813654;29;20100;-76
2022/05/02 11:48:31;;;;;;;1999.90;999.90;;;25.60;72.40;;;;;;4804435;29;20142;-77
2022/05/02 11:51:03;;;;;;;1999.90;999.90;;;25.30;72.30;;;;;;4818052;29;20079;-76
2022/05/02 11:53:35;;;;;;;1999.90;999.90;;;25.50;73.30;;;;;;4820541;29;20064;-76
2022/05/02 11:56:06;;;;;;;1999.90;999.90;;;25.30;73.60;;;;;;4806564;29;20046;-76
2022/05/02 11:58:45;;;;;;;1999.90;999.90;;;25.10;72.30;;;;;;4818552;29;20049;-76
2022/05/02 12:01:18;;;;;;;1999.90;999.90;;;25.10;72.30;;;;;;4808266;29;20133;-76
2022/05/02 12:04:03;;;;;;;1999.90;999.90;;;25.00;71.20;;;;;;4817588;29;20105;-76
2022/05/02 12:06:59;;;;;;;1999.90;999.90;;;24.90;72.40;;;;;;4880785;29;20583;-76
2022/05/02 12:09:25;;;;;;;1999.90;999.90;;;25.10;73.00;;;;;;4891466;29;20059;-76
2022/05/02 12:11:53;;;;;;;1999.90;999.90;;;25.00;70.60;;;;;;4876146;29;20133;-76
2022/05/02 12:14:20;;;;;;;1999.90;999.90;;;24.80;71.80;;;;;;4896926;29;20037;-75
2022/05/02 12:17:12;;;;;;;1999.90;999.90;;;25.20;72.00;;;;;;4894303;29;20043;-76
2022/05/02 12:19:40;;;;;;;1999.90;999.90;;;25.50;71.20;;;;;;4890667;29;20057;-77
2022/05/02 12:22:16;;;;;;;1999.90;999.90;;;25.50;71.00;;;;;;4884285;29;20107;-77
2022/05/02 12:24:45;;;;;;;1999.90;999.90;;;25.50;71.00;;;;;;4895892;29;20048;-75
2022/05/02 12:27:14;;;;;;;1999.90;999.90;;;25.00;70.90;;;;;;4877925;29;20476;-76
2022/05/02 12:29:42;;;;;;;1999.90;999.90;;;25.00;71.50;;;;;;4894672;29;20028;-75
2022/05/02 12:32:08;;;;;;;1999.90;999.90;;;25.00;71.90;;;;;;4893604;29;20045;-75
2022/05/02 12:34:40;;;;;;;1999.90;999.90;;;24.60;72.30;;;;;;4875903;29;20036;-74
2022/05/02 12:37:20;;;;;;;1999.90;999.90;;;24.00;73.70;;;;;;4874059;29;20527;-75
2022/05/02 12:40:23;;;;;;;1999.90;999.90;;;23.60;73.00;;;;;;4885922;29;20036;-75
2022/05/02 12:42:51;;;;;;;1999.90;999.90;;;23.10;74.20;;;;;;4891676;29;20053;-75
2022/05/02 12:45:18;;;;;;;1999.90;999.90;;;23.50;73.80;;;;;;4874139;29;20096;-75
2022/05/02 12:47:58;;;;;;;1999.90;999.90;;;24.00;74.90;;;;;;4877291;29;20032;-75
2022/05/02 12:50:27;;;;;;;1999.90;999.90;;;24.20;73.20;;;;;;4893091;29;20108;-75
2022/05/02 12:53:05;;;;;;;1999.90;999.90;;;24.10;72.20;;;;;;4891964;29;20560;-74
2022/05/02 12:55:34;;;;;;;1999.90;999.90;;;24.20;73.30;;;;;;4890174;29;20024;-75
2022/05/02 13:00:48;;;;;;;1999.90;999.90;;;24.70;74.20;;;;;;4888320;29;20036;-75
2022/05/02 13:03:17;;;;;;;1999.90;999.90;;;24.60;73.50;;;;;;4897667;29;20543;-74